sensor_id;sensor_type;location;lat;lon;timestamp;temperature;humidity
57058;DHT22;55017;52.848;6.748;2023-09-19T00:01:06;15.00;99.90
57058;DHT22;55017;52.848;6.748;2023-09-19T00:03:34;15.00;99.90
57058;DHT22;55017;52.848;6.748;2023-09-19T00:06:01;15.00;99.90
57058;DHT22;55017;52.848;6.748;2023-09-19T00:08:26;14.80;99.90
57058;DHT22;55017;52.848;6.748;2023-09-19T00:10:53;14.90;99.90
57058;DHT22;55017;52.848;6.748;2023-09-19T00:13:20;14.70;99.90
57058;DHT22;55017;52.848;6.748;2023-09-19T00:15:47;14.60;99.90
57058;DHT22;55017;52.848;6.748;2023-09-19T00:18:16;14.60;99.90
57058;DHT22;55017;52.848;6.748;2023-09-19T00:20:44;14.50;99.90
57058;DHT22;55017;52.848;6.748;2023-09-19T00:23:13;14.50;99.90
57058;DHT22;55017;52.848;6.748;2023-09-19T00:25:39;14.40;99.90
57058;DHT22;55017;52.848;6.748;2023-09-19T00:28:06;14.40;99.90
57058;DHT22;55017;52.848;6.748;2023-09-19T00:30:33;14.30;99.90
57058;DHT22;55017;52.848;6.748;2023-09-19T00:32:59;14.30;99.90
57058;DHT22;55017;52.848;6.748;2023-09-19T00:35:26;14.20;99.90
57058;DHT22;55017;52.848;6.748;2023-09-19T00:37:53;14.20;99.90
57058;DHT22;55017;52.848;6.748;2023-09-19T00:40:19;14.10;99.90
57058;DHT22;55017;52.848;6.748;2023-09-19T00:42:47;14.10;99.90
57058;DHT22;55017;52.848;6.748;2023-09-19T00:45:14;14.10;99.90
57058;DHT22;55017;52.848;6.748;2023-09-19T00:47:46;14.20;99.90
57058;DHT22;55017;52.848;6.748;2023-09-19T00:50:20;14.00;99.90
57058;DHT22;55017;52.848;6.748;2023-09-19T00:52:48;14.10;99.90
57058;DHT22;55017;52.848;6.748;2023-09-19T00:55:16;14.00;99.90
57058;DHT22;55017;52.848;6.748;2023-09-19T00:57:42;14.00;99.90
57058;DHT22;55017;52.848;6.748;2023-09-19T01:00:12;14.10;99.90
57058;DHT22;55017;52.848;6.748;2023-09-19T01:02:41;14.00;99.90
57058;DHT22;55017;52.848;6.748;2023-09-19T01:05:11;13.90;99.90
57058;DHT22;55017;52.848;6.748;2023-09-19T01:07:38;13.90;99.90
57058;DHT22;55017;52.848;6.748;2023-09-19T01:10:12;13.90;99.90
57058;DHT22;55017;52.848;6.748;2023-09-19T01:12:45;13.80;99.90
57058;DHT22;55017;52.848;6.748;2023-09-19T01:17:51;13.90;99.90
57058;DHT22;55017;52.848;6.748;2023-09-19T01:23:23;13.90;99.90
57058;DHT22;55017;52.848;6.748;2023-09-19T01:26:07;13.90;99.90
57058;DHT22;55017;52.848;6.748;2023-09-19T01:31:11;13.90;99.90
57058;DHT22;55017;52.848;6.748;2023-09-19T01:33:57;13.90;99.90
57058;DHT22;55017;52.848;6.748;2023-09-19T01:36:28;13.80;99.90
57058;DHT22;55017;52.848;6.748;2023-09-19T01:38:55;13.80;99.90
57058;DHT22;55017;52.848;6.748;2023-09-19T01:41:37;13.80;99.90
57058;DHT22;55017;52.848;6.748;2023-09-19T01:44:06;13.80;99.90
57058;DHT22;55017;52.848;6.748;2023-09-19T01:46:37;13.70;99.90
57058;DHT22;55017;52.848;6.748;2023-09-19T01:52:12;13.80;99.90
57058;DHT22;55017;52.848;6.748;2023-09-19T01:54:52;13.80;99.90
57058;DHT22;55017;52.848;6.748;2023-09-19T01:57:35;13.70;99.90
57058;DHT22;55017;52.848;6.748;2023-09-19T02:00:10;13.70;99.90
57058;DHT22;55017;52.848;6.748;2023-09-19T02:02:43;13.70;99.90
57058;DHT22;55017;52.848;6.748;2023-09-19T02:05:10;13.70;99.90
57058;DHT22;55017;52.848;6.748;2023-09-19T02:07:35;13.60;99.90
57058;DHT22;55017;52.848;6.748;2023-09-19T02:10:04;13.60;99.90
57058;DHT22;55017;52.848;6.748;2023-09-19T02:12:31;13.70;99.90
57058;DHT22;55017;52.848;6.748;2023-09-19T02:14:58;13.60;99.90
57058;DHT22;55017;52.848;6.748;2023-09-19T02:17:24;13.60;99.90
57058;DHT22;55017;52.848;6.748;2023-09-19T02:19:55;13.60;99.90
57058;DHT22;55017;52.848;6.748;2023-09-19T02:22:21;13.50;99.90
57058;DHT22;55017;52.848;6.748;2023-09-19T02:24:48;13.50;99.90
57058;DHT22;55017;52.848;6.748;2023-09-19T02:27:13;13.50;99.90
57058;DHT22;55017;52.848;6.748;2023-09-19T02:29:41;13.60;99.90
57058;DHT22;55017;52.848;6.748;2023-09-19T02:32:07;13.60;99.90
57058;DHT22;55017;52.848;6.748;2023-09-19T02:34:35;13.60;99.90
57058;DHT22;55017;52.848;6.748;2023-09-19T02:37:05;13.50;99.90
57058;DHT22;55017;52.848;6.748;2023-09-19T02:39:33;13.50;99.90
57058;DHT22;55017;52.848;6.748;2023-09-19T02:41:59;13.50;99.90
57058;DHT22;55017;52.848;6.748;2023-09-19T02:44:24;13.40;99.90
57058;DHT22;55017;52.848;6.748;2023-09-19T02:46:50;13.40;99.90
57058;DHT22;55017;52.848;6.748;2023-09-19T02:49:16;13.50;99.90
57058;DHT22;55017;52.848;6.748;2023-09-19T02:51:43;13.50;99.90
57058;DHT22;55017;52.848;6.748;2023-09-19T02:54:08;13.40;99.90
57058;DHT22;55017;52.848;6.748;2023-09-19T02:56:34;13.40;99.90
57058;DHT22;55017;52.848;6.748;2023-09-19T02:59:01;13.40;99.90
57058;DHT22;55017;52.848;6.748;2023-09-19T03:01:27;13.30;99.90
57058;DHT22;55017;52.848;6.748;2023-09-19T03:03:54;13.40;99.90
57058;DHT22;55017;52.848;6.748;2023-09-19T03:06:20;13.40;99.90
57058;DHT22;55017;52.848;6.748;2023-09-19T03:08:47;13.30;99.90
57058;DHT22;55017;52.848;6.748;2023-09-19T03:11:14;13.40;99.90
57058;DHT22;55017;52.848;6.748;2023-09-19T03:13:41;13.40;99.90
57058;DHT22;55017;52.848;6.748;2023-09-19T03:16:08;13.30;99.90
57058;DHT22;55017;52.848;6.748;2023-09-19T03:18:34;13.30;99.90
57058;DHT22;55017;52.848;6.748;2023-09-19T03:21:00;13.30;99.90
57058;DHT22;55017;52.848;6.748;2023-09-19T03:23:26;13.40;99.90
57058;DHT22;55017;52.848;6.748;2023-09-19T03:25:53;13.30;99.90
57058;DHT22;55017;52.848;6.748;2023-09-19T03:28:19;13.20;99.90
57058;DHT22;55017;52.848;6.748;2023-09-19T03:30:45;13.20;99.90
57058;DHT22;55017;52.848;6.748;2023-09-19T03:33:11;13.30;99.90
57058;DHT22;55017;52.848;6.748;2023-09-19T03:35:38;13.30;99.90
57058;DHT22;55017;52.848;6.748;2023-09-19T03:38:05;13.20;99.90
57058;DHT22;55017;52.848;6.748;2023-09-19T03:40:30;13.30;99.90
57058;DHT22;55017;52.848;6.748;2023-09-19T03:42:56;13.20;99.90
57058;DHT22;55017;52.848;6.748;2023-09-19T03:45:22;13.20;99.90
57058;DHT22;55017;52.848;6.748;2023-09-19T03:47:47;13.30;99.90
57058;DHT22;55017;52.848;6.748;2023-09-19T03:50:13;13.20;99.90
57058;DHT22;55017;52.848;6.748;2023-09-19T03:52:43;13.40;99.90
57058;DHT22;55017;52.848;6.748;2023-09-19T03:55:09;13.30;99.90
57058;DHT22;55017;52.848;6.748;2023-09-19T03:57:35;13.30;99.90
57058;DHT22;55017;52.848;6.748;2023-09-19T04:00:02;13.40;99.90
57058;DHT22;55017;52.848;6.748;2023-09-19T04:02:27;13.30;99.90
57058;DHT22;55017;52.848;6.748;2023-09-19T04:04:58;13.40;99.90
57058;DHT22;55017;52.848;6.748;2023-09-19T04:07:24;13.40;99.90
57058;DHT22;55017;52.848;6.748;2023-09-19T04:09:51;13.30;99.90
57058;DHT22;55017;52.848;6.748;2023-09-19T04:12:19;13.40;99.90
57058;DHT22;55017;52.848;6.748;2023-09-19T04:14:44;13.50;99.90
57058;DHT22;55017;52.848;6.748;2023-09-19T04:17:10;13.40;99.90
57058;DHT22;55017;52.848;6.748;2023-09-19T04:19:36;13.40;99.90
57058;DHT22;55017;52.848;6.748;2023-09-19T04:22:02;13.50;99.90
57058;DHT22;55017;52.848;6.748;2023-09-19T04:24:28;13.50;99.90
57058;DHT22;55017;52.848;6.748;2023-09-19T04:26:54;13.50;99.90
57058;DHT22;55017;52.848;6.748;2023-09-19T04:29:19;13.60;99.90
57058;DHT22;55017;52.848;6.748;2023-09-19T04:31:45;13.50;99.90
57058;DHT22;55017;52.848;6.748;2023-09-19T04:34:11;13.70;99.90
57058;DHT22;55017;52.848;6.748;2023-09-19T04:36:43;13.60;99.90
57058;DHT22;55017;52.848;6.748;2023-09-19T04:39:09;13.50;99.90
57058;DHT22;55017;52.848;6.748;2023-09-19T04:41:36;13.60;99.90
57058;DHT22;55017;52.848;6.748;2023-09-19T04:44:05;13.50;99.90
57058;DHT22;55017;52.848;6.748;2023-09-19T04:46:30;13.60;99.90
57058;DHT22;55017;52.848;6.748;2023-09-19T04:48:56;13.60;99.90
57058;DHT22;55017;52.848;6.748;2023-09-19T04:51:22;13.80;99.90
57058;DHT22;55017;52.848;6.748;2023-09-19T04:53:48;13.60;99.90
57058;DHT22;55017;52.848;6.748;2023-09-19T04:56:14;13.70;99.90
57058;DHT22;55017;52.848;6.748;2023-09-19T04:58:40;13.70;99.90
57058;DHT22;55017;52.848;6.748;2023-09-19T05:01:06;13.70;99.90
57058;DHT22;55017;52.848;6.748;2023-09-19T05:03:37;13.60;99.90
57058;DHT22;55017;52.848;6.748;2023-09-19T05:06:02;13.80;99.90
57058;DHT22;55017;52.848;6.748;2023-09-19T05:08:29;13.70;99.90
57058;DHT22;55017;52.848;6.748;2023-09-19T05:10:54;13.80;99.90
57058;DHT22;55017;52.848;6.748;2023-09-19T05:13:21;13.80;99.90
57058;DHT22;55017;52.848;6.748;2023-09-19T05:15:49;13.80;99.90
57058;DHT22;55017;52.848;6.748;2023-09-19T05:18:15;13.70;99.90
57058;DHT22;55017;52.848;6.748;2023-09-19T05:20:41;13.80;99.90
57058;DHT22;55017;52.848;6.748;2023-09-19T05:23:07;13.80;99.90
57058;DHT22;55017;52.848;6.748;2023-09-19T05:25:35;13.80;99.90
57058;DHT22;55017;52.848;6.748;2023-09-19T05:28:08;13.80;99.90
57058;DHT22;55017;52.848;6.748;2023-09-19T05:30:35;13.80;99.90
57058;DHT22;55017;52.848;6.748;2023-09-19T05:33:04;13.70;99.90
57058;DHT22;55017;52.848;6.748;2023-09-19T05:35:31;13.70;99.90
57058;DHT22;55017;52.848;6.748;2023-09-19T05:37:57;13.70;99.90
57058;DHT22;55017;52.848;6.748;2023-09-19T05:40:24;13.60;99.90
57058;DHT22;55017;52.848;6.748;2023-09-19T05:42:50;13.70;99.90
57058;DHT22;55017;52.848;6.748;2023-09-19T05:45:18;13.60;99.90
57058;DHT22;55017;52.848;6.748;2023-09-19T05:47:51;13.60;99.90
57058;DHT22;55017;52.848;6.748;2023-09-19T05:50:21;13.70;99.90
57058;DHT22;55017;52.848;6.748;2023-09-19T05:52:53;13.60;99.90
57058;DHT22;55017;52.848;6.748;2023-09-19T05:55:19;13.50;99.90
57058;DHT22;55017;52.848;6.748;2023-09-19T05:57:50;13.70;99.90
57058;DHT22;55017;52.848;6.748;2023-09-19T06:00:18;13.50;99.90
57058;DHT22;55017;52.848;6.748;2023-09-19T06:02:44;13.50;99.90
57058;DHT22;55017;52.848;6.748;2023-09-19T06:05:10;13.50;99.90
57058;DHT22;55017;52.848;6.748;2023-09-19T06:07:36;13.40;99.90
57058;DHT22;55017;52.848;6.748;2023-09-19T06:10:06;13.60;99.90
57058;DHT22;55017;52.848;6.748;2023-09-19T06:12:42;13.60;99.90
57058;DHT22;55017;52.848;6.748;2023-09-19T06:15:11;13.50;99.90
57058;DHT22;55017;52.848;6.748;2023-09-19T06:17:52;13.60;99.90
57058;DHT22;55017;52.848;6.748;2023-09-19T06:20:23;13.50;99.90
57058;DHT22;55017;52.848;6.748;2023-09-19T06:22:51;13.70;99.90
57058;DHT22;55017;52.848;6.748;2023-09-19T06:25:17;13.70;99.90
57058;DHT22;55017;52.848;6.748;2023-09-19T06:27:46;13.80;99.90
57058;DHT22;55017;52.848;6.748;2023-09-19T06:30:12;13.80;99.90
57058;DHT22;55017;52.848;6.748;2023-09-19T06:32:39;14.00;99.90
57058;DHT22;55017;52.848;6.748;2023-09-19T06:35:05;14.00;99.90
57058;DHT22;55017;52.848;6.748;2023-09-19T06:37:34;14.10;99.90
57058;DHT22;55017;52.848;6.748;2023-09-19T06:40:06;14.10;99.90
57058;DHT22;55017;52.848;6.748;2023-09-19T06:42:32;14.20;99.90
57058;DHT22;55017;52.848;6.748;2023-09-19T06:44:58;14.10;99.90
57058;DHT22;55017;52.848;6.748;2023-09-19T06:47:23;14.00;99.90
57058;DHT22;55017;52.848;6.748;2023-09-19T06:49:51;14.00;99.90
57058;DHT22;55017;52.848;6.748;2023-09-19T06:52:17;13.90;99.90
57058;DHT22;55017;52.848;6.748;2023-09-19T06:54:47;13.80;99.90
57058;DHT22;55017;52.848;6.748;2023-09-19T06:57:16;13.90;99.90
57058;DHT22;55017;52.848;6.748;2023-09-19T06:59:41;13.90;99.90
57058;DHT22;55017;52.848;6.748;2023-09-19T07:02:07;13.90;99.90
57058;DHT22;55017;52.848;6.748;2023-09-19T07:04:33;13.90;99.90
57058;DHT22;55017;52.848;6.748;2023-09-19T07:06:59;14.00;99.90
57058;DHT22;55017;52.848;6.748;2023-09-19T07:09:25;14.20;99.90
57058;DHT22;55017;52.848;6.748;2023-09-19T07:11:52;14.20;99.90
57058;DHT22;55017;52.848;6.748;2023-09-19T07:14:18;14.40;99.90
57058;DHT22;55017;52.848;6.748;2023-09-19T07:16:44;14.60;99.90
57058;DHT22;55017;52.848;6.748;2023-09-19T07:19:10;14.70;99.90
57058;DHT22;55017;52.848;6.748;2023-09-19T07:21:36;14.90;99.90
57058;DHT22;55017;52.848;6.748;2023-09-19T07:24:04;14.90;99.90
57058;DHT22;55017;52.848;6.748;2023-09-19T07:26:30;15.10;99.90
57058;DHT22;55017;52.848;6.748;2023-09-19T07:28:56;15.10;99.90
57058;DHT22;55017;52.848;6.748;2023-09-19T07:31:23;15.10;99.90
57058;DHT22;55017;52.848;6.748;2023-09-19T07:33:49;15.20;99.90
57058;DHT22;55017;52.848;6.748;2023-09-19T07:36:14;15.30;99.90
57058;DHT22;55017;52.848;6.748;2023-09-19T07:38:40;15.30;99.90
57058;DHT22;55017;52.848;6.748;2023-09-19T07:41:07;15.20;99.90
57058;DHT22;55017;52.848;6.748;2023-09-19T07:43:35;15.30;99.90
57058;DHT22;55017;52.848;6.748;2023-09-19T07:46:07;15.10;99.90
57058;DHT22;55017;52.848;6.748;2023-09-19T07:48:34;15.00;99.90
57058;DHT22;55017;52.848;6.748;2023-09-19T07:51:05;15.00;99.90
57058;DHT22;55017;52.848;6.748;2023-09-19T07:53:31;15.10;99.90
57058;DHT22;55017;52.848;6.748;2023-09-19T07:56:06;15.00;99.90
57058;DHT22;55017;52.848;6.748;2023-09-19T07:58:33;15.00;99.90
57058;DHT22;55017;52.848;6.748;2023-09-19T08:01:11;15.00;99.90
57058;DHT22;55017;52.848;6.748;2023-09-19T08:03:38;15.00;99.90
57058;DHT22;55017;52.848;6.748;2023-09-19T08:06:06;15.10;99.90
57058;DHT22;55017;52.848;6.748;2023-09-19T08:08:33;15.10;99.90
57058;DHT22;55017;52.848;6.748;2023-09-19T08:11:05;15.10;99.90
57058;DHT22;55017;52.848;6.748;2023-09-19T08:13:41;15.30;99.90
57058;DHT22;55017;52.848;6.748;2023-09-19T08:16:12;15.50;99.90
57058;DHT22;55017;52.848;6.748;2023-09-19T08:18:40;15.70;99.90
57058;DHT22;55017;52.848;6.748;2023-09-19T08:21:06;15.60;99.90
57058;DHT22;55017;52.848;6.748;2023-09-19T08:23:39;15.80;99.90
57058;DHT22;55017;52.848;6.748;2023-09-19T08:26:06;15.60;99.90
57058;DHT22;55017;52.848;6.748;2023-09-19T08:28:35;15.80;99.90
57058;DHT22;55017;52.848;6.748;2023-09-19T08:31:04;15.80;99.90
57058;DHT22;55017;52.848;6.748;2023-09-19T08:33:33;15.90;99.90
57058;DHT22;55017;52.848;6.748;2023-09-19T08:35:59;15.90;99.90
57058;DHT22;55017;52.848;6.748;2023-09-19T08:38:25;15.90;99.90
57058;DHT22;55017;52.848;6.748;2023-09-19T08:40:58;15.90;99.90
57058;DHT22;55017;52.848;6.748;2023-09-19T08:43:25;15.80;99.90
57058;DHT22;55017;52.848;6.748;2023-09-19T08:45:54;15.60;99.90
57058;DHT22;55017;52.848;6.748;2023-09-19T08:48:27;15.70;99.90
57058;DHT22;55017;52.848;6.748;2023-09-19T08:51:02;15.80;99.90
57058;DHT22;55017;52.848;6.748;2023-09-19T08:56:18;16.00;99.90
57058;DHT22;55017;52.848;6.748;2023-09-19T08:58:54;16.10;99.90
57058;DHT22;55017;52.848;6.748;2023-09-19T09:01:22;16.10;99.90
57058;DHT22;55017;52.848;6.748;2023-09-19T09:03:51;16.10;99.90
57058;DHT22;55017;52.848;6.748;2023-09-19T09:06:19;16.30;99.90
57058;DHT22;55017;52.848;6.748;2023-09-19T09:08:46;16.50;99.90
57058;DHT22;55017;52.848;6.748;2023-09-19T09:11:13;16.50;99.90
57058;DHT22;55017;52.848;6.748;2023-09-19T09:13:40;16.70;99.90
57058;DHT22;55017;52.848;6.748;2023-09-19T09:16:07;16.80;99.90
57058;DHT22;55017;52.848;6.748;2023-09-19T09:18:33;17.00;99.90
57058;DHT22;55017;52.848;6.748;2023-09-19T09:20:59;17.30;99.90
57058;DHT22;55017;52.848;6.748;2023-09-19T09:23:25;17.40;99.90
57058;DHT22;55017;52.848;6.748;2023-09-19T09:25:53;17.50;99.90
57058;DHT22;55017;52.848;6.748;2023-09-19T09:28:24;17.60;99.90
57058;DHT22;55017;52.848;6.748;2023-09-19T09:30:50;17.90;99.90
57058;DHT22;55017;52.848;6.748;2023-09-19T09:33:16;18.10;99.90
57058;DHT22;55017;52.848;6.748;2023-09-19T09:38:17;18.40;99.90
57058;DHT22;55017;52.848;6.748;2023-09-19T09:40:51;18.50;99.90
57058;DHT22;55017;52.848;6.748;2023-09-19T09:43:36;18.50;99.90
57058;DHT22;55017;52.848;6.748;2023-09-19T09:48:55;18.70;99.90
57058;DHT22;55017;52.848;6.748;2023-09-19T09:51:42;18.80;99.90
57058;DHT22;55017;52.848;6.748;2023-09-19T09:54:12;18.70;99.90
57058;DHT22;55017;52.848;6.748;2023-09-19T09:56:58;18.60;99.90
57058;DHT22;55017;52.848;6.748;2023-09-19T09:59:44;18.70;99.90
57058;DHT22;55017;52.848;6.748;2023-09-19T10:02:21;18.60;99.90
57058;DHT22;55017;52.848;6.748;2023-09-19T10:04:51;18.60;99.90
57058;DHT22;55017;52.848;6.748;2023-09-19T10:07:30;18.70;99.90
57058;DHT22;55017;52.848;6.748;2023-09-19T10:10:05;18.70;99.90
57058;DHT22;55017;52.848;6.748;2023-09-19T10:12:49;18.70;99.90
57058;DHT22;55017;52.848;6.748;2023-09-19T10:15:18;18.60;99.90
57058;DHT22;55017;52.848;6.748;2023-09-19T10:17:46;18.50;99.90
57058;DHT22;55017;52.848;6.748;2023-09-19T10:20:13;18.60;99.90
57058;DHT22;55017;52.848;6.748;2023-09-19T10:22:48;18.70;99.90
57058;DHT22;55017;52.848;6.748;2023-09-19T10:25:25;18.80;99.90
57058;DHT22;55017;52.848;6.748;2023-09-19T10:27:53;18.90;99.90
57058;DHT22;55017;52.848;6.748;2023-09-19T10:30:22;19.00;99.90
57058;DHT22;55017;52.848;6.748;2023-09-19T10:33:03;19.20;99.90
57058;DHT22;55017;52.848;6.748;2023-09-19T10:35:29;19.20;99.90
57058;DHT22;55017;52.848;6.748;2023-09-19T10:37:59;19.10;99.90
57058;DHT22;55017;52.848;6.748;2023-09-19T10:40:27;18.80;99.90
57058;DHT22;55017;52.848;6.748;2023-09-19T10:43:04;18.80;99.90
57058;DHT22;55017;52.848;6.748;2023-09-19T10:45:34;18.80;99.90
57058;DHT22;55017;52.848;6.748;2023-09-19T10:48:01;18.80;99.90
57058;DHT22;55017;52.848;6.748;2023-09-19T10:50:37;18.60;99.90
57058;DHT22;55017;52.848;6.748;2023-09-19T10:53:07;18.70;99.90
57058;DHT22;55017;52.848;6.748;2023-09-19T10:55:37;18.80;99.90
57058;DHT22;55017;52.848;6.748;2023-09-19T10:58:05;19.10;99.90
57058;DHT22;55017;52.848;6.748;2023-09-19T11:00:56;19.20;99.90
57058;DHT22;55017;52.848;6.748;2023-09-19T11:03:26;19.30;99.90
57058;DHT22;55017;52.848;6.748;2023-09-19T11:08:31;19.60;99.90
57058;DHT22;55017;52.848;6.748;2023-09-19T11:10:57;19.50;99.90
57058;DHT22;55017;52.848;6.748;2023-09-19T11:13:31;19.40;99.90
57058;DHT22;55017;52.848;6.748;2023-09-19T11:24:28;19.90;99.90
57058;DHT22;55017;52.848;6.748;2023-09-19T11:27:15;20.00;99.90
57058;DHT22;55017;52.848;6.748;2023-09-19T11:29:42;19.80;99.90
57058;DHT22;55017;52.848;6.748;2023-09-19T11:32:08;19.70;99.90
57058;DHT22;55017;52.848;6.748;2023-09-19T11:34:42;19.50;99.90
57058;DHT22;55017;52.848;6.748;2023-09-19T11:39:39;19.90;99.90
57058;DHT22;55017;52.848;6.748;2023-09-19T11:48:14;20.10;99.90
57058;DHT22;55017;52.848;6.748;2023-09-19T11:50:42;20.00;99.90
57058;DHT22;55017;52.848;6.748;2023-09-19T11:53:11;19.80;99.90
57058;DHT22;55017;52.848;6.748;2023-09-19T11:55:40;19.80;99.90
57058;DHT22;55017;52.848;6.748;2023-09-19T11:58:09;19.40;99.90
57058;DHT22;55017;52.848;6.748;2023-09-19T12:00:36;19.30;99.90
57058;DHT22;55017;52.848;6.748;2023-09-19T12:03:08;19.20;99.90
57058;DHT22;55017;52.848;6.748;2023-09-19T12:05:35;19.10;99.90
57058;DHT22;55017;52.848;6.748;2023-09-19T12:08:03;19.00;99.90
57058;DHT22;55017;52.848;6.748;2023-09-19T12:10:29;18.80;99.90
57058;DHT22;55017;52.848;6.748;2023-09-19T12:12:55;18.80;99.90
57058;DHT22;55017;52.848;6.748;2023-09-19T12:15:25;18.70;99.90
57058;DHT22;55017;52.848;6.748;2023-09-19T12:18:00;18.90;99.90
57058;DHT22;55017;52.848;6.748;2023-09-19T12:20:41;18.80;99.90
57058;DHT22;55017;52.848;6.748;2023-09-19T12:23:15;18.90;99.90
57058;DHT22;55017;52.848;6.748;2023-09-19T12:25:42;18.90;99.90
57058;DHT22;55017;52.848;6.748;2023-09-19T12:28:12;18.80;99.90
57058;DHT22;55017;52.848;6.748;2023-09-19T12:30:37;18.80;99.90
57058;DHT22;55017;52.848;6.748;2023-09-19T12:33:04;18.60;99.90
57058;DHT22;55017;52.848;6.748;2023-09-19T12:35:33;18.60;99.90
57058;DHT22;55017;52.848;6.748;2023-09-19T12:38:02;18.60;99.90
57058;DHT22;55017;52.848;6.748;2023-09-19T12:40:29;18.50;99.90
57058;DHT22;55017;52.848;6.748;2023-09-19T12:42:59;18.50;99.90
57058;DHT22;55017;52.848;6.748;2023-09-19T12:45:25;18.50;99.90
57058;DHT22;55017;52.848;6.748;2023-09-19T12:51:07;18.50;99.90
57058;DHT22;55017;52.848;6.748;2023-09-19T12:53:45;18.60;99.90
57058;DHT22;55017;52.848;6.748;2023-09-19T12:56:16;18.60;99.90
57058;DHT22;55017;52.848;6.748;2023-09-19T12:58:54;18.60;99.90
57058;DHT22;55017;52.848;6.748;2023-09-19T13:01:20;18.90;99.90
57058;DHT22;55017;52.848;6.748;2023-09-19T13:03:46;18.70;99.90
57058;DHT22;55017;52.848;6.748;2023-09-19T13:06:35;18.70;99.90
57058;DHT22;55017;52.848;6.748;2023-09-19T13:09:08;18.60;99.90
57058;DHT22;55017;52.848;6.748;2023-09-19T13:11:38;18.60;99.90
57058;DHT22;55017;52.848;6.748;2023-09-19T13:14:24;18.40;99.90
57058;DHT22;55017;52.848;6.748;2023-09-19T13:16:59;18.50;99.90
57058;DHT22;55017;52.848;6.748;2023-09-19T13:19:40;18.30;99.90
57058;DHT22;55017;52.848;6.748;2023-09-19T13:22:42;18.30;99.90
57058;DHT22;55017;52.848;6.748;2023-09-19T13:25:10;18.10;99.90
57058;DHT22;55017;52.848;6.748;2023-09-19T13:27:41;18.00;99.90
57058;DHT22;55017;52.848;6.748;2023-09-19T13:30:07;18.10;99.90
57058;DHT22;55017;52.848;6.748;2023-09-19T13:32:33;18.10;99.90
57058;DHT22;55017;52.848;6.748;2023-09-19T13:34:59;18.00;99.90
57058;DHT22;55017;52.848;6.748;2023-09-19T13:37:25;18.00;99.90
57058;DHT22;55017;52.848;6.748;2023-09-19T13:39:52;18.10;99.90
57058;DHT22;55017;52.848;6.748;2023-09-19T13:42:17;18.00;99.90
57058;DHT22;55017;52.848;6.748;2023-09-19T13:44:44;18.00;99.90
57058;DHT22;55017;52.848;6.748;2023-09-19T13:47:09;18.00;99.90
57058;DHT22;55017;52.848;6.748;2023-09-19T13:49:36;18.10;99.90
57058;DHT22;55017;52.848;6.748;2023-09-19T13:52:02;18.00;99.90
57058;DHT22;55017;52.848;6.748;2023-09-19T13:54:31;18.00;99.90
57058;DHT22;55017;52.848;6.748;2023-09-19T13:56:56;18.00;99.90
57058;DHT22;55017;52.848;6.748;2023-09-19T13:59:22;18.00;99.90
57058;DHT22;55017;52.848;6.748;2023-09-19T14:01:52;18.00;99.90
57058;DHT22;55017;52.848;6.748;2023-09-19T14:04:19;18.10;99.90
57058;DHT22;55017;52.848;6.748;2023-09-19T14:06:44;18.20;99.90
57058;DHT22;55017;52.848;6.748;2023-09-19T14:09:11;18.30;99.90
57058;DHT22;55017;52.848;6.748;2023-09-19T14:11:38;18.40;99.90
57058;DHT22;55017;52.848;6.748;2023-09-19T14:14:04;18.40;99.90
57058;DHT22;55017;52.848;6.748;2023-09-19T14:16:30;18.50;99.90
57058;DHT22;55017;52.848;6.748;2023-09-19T14:18:57;18.50;99.90
57058;DHT22;55017;52.848;6.748;2023-09-19T14:21:23;18.60;99.90
57058;DHT22;55017;52.848;6.748;2023-09-19T14:23:49;18.70;99.90
57058;DHT22;55017;52.848;6.748;2023-09-19T14:26:15;18.80;99.90
57058;DHT22;55017;52.848;6.748;2023-09-19T14:28:42;18.80;99.90
57058;DHT22;55017;52.848;6.748;2023-09-19T14:31:09;18.80;99.90
57058;DHT22;55017;52.848;6.748;2023-09-19T14:33:35;18.80;99.90
57058;DHT22;55017;52.848;6.748;2023-09-19T14:36:10;18.80;99.90
57058;DHT22;55017;52.848;6.748;2023-09-19T14:38:37;18.70;99.90
57058;DHT22;55017;52.848;6.748;2023-09-19T14:41:06;18.70;99.90
57058;DHT22;55017;52.848;6.748;2023-09-19T14:43:32;18.60;99.90
57058;DHT22;55017;52.848;6.748;2023-09-19T14:46:05;18.70;99.90
57058;DHT22;55017;52.848;6.748;2023-09-19T14:48:33;18.50;99.90
57058;DHT22;55017;52.848;6.748;2023-09-19T14:51:03;18.60;99.90
57058;DHT22;55017;52.848;6.748;2023-09-19T14:53:29;18.60;99.90
57058;DHT22;55017;52.848;6.748;2023-09-19T14:55:55;18.60;99.90
57058;DHT22;55017;52.848;6.748;2023-09-19T14:58:21;18.50;99.90
57058;DHT22;55017;52.848;6.748;2023-09-19T15:00:47;18.50;99.90
57058;DHT22;55017;52.848;6.748;2023-09-19T15:03:12;18.50;99.90
57058;DHT22;55017;52.848;6.748;2023-09-19T15:05:40;18.40;99.90
57058;DHT22;55017;52.848;6.748;2023-09-19T15:08:05;18.40;99.90
57058;DHT22;55017;52.848;6.748;2023-09-19T15:10:31;18.40;99.90
57058;DHT22;55017;52.848;6.748;2023-09-19T15:12:57;18.30;99.90
57058;DHT22;55017;52.848;6.748;2023-09-19T15:15:22;18.40;99.90
57058;DHT22;55017;52.848;6.748;2023-09-19T15:17:48;18.40;99.90
57058;DHT22;55017;52.848;6.748;2023-09-19T15:20:14;18.40;99.90
57058;DHT22;55017;52.848;6.748;2023-09-19T15:22:40;18.40;99.90
57058;DHT22;55017;52.848;6.748;2023-09-19T15:25:06;18.50;99.90
57058;DHT22;55017;52.848;6.748;2023-09-19T15:27:31;18.50;99.90
57058;DHT22;55017;52.848;6.748;2023-09-19T15:29:59;18.40;99.90
57058;DHT22;55017;52.848;6.748;2023-09-19T15:32:26;18.50;99.90
57058;DHT22;55017;52.848;6.748;2023-09-19T15:34:51;18.30;99.90
57058;DHT22;55017;52.848;6.748;2023-09-19T15:37:17;18.30;99.90
57058;DHT22;55017;52.848;6.748;2023-09-19T15:39:43;18.40;99.90
57058;DHT22;55017;52.848;6.748;2023-09-19T15:42:10;18.30;99.90
57058;DHT22;55017;52.848;6.748;2023-09-19T15:44:36;18.40;99.90
57058;DHT22;55017;52.848;6.748;2023-09-19T15:47:03;18.20;99.90
57058;DHT22;55017;52.848;6.748;2023-09-19T15:49:29;18.30;99.90
57058;DHT22;55017;52.848;6.748;2023-09-19T15:51:54;18.20;99.90
57058;DHT22;55017;52.848;6.748;2023-09-19T15:54:20;18.20;99.90
57058;DHT22;55017;52.848;6.748;2023-09-19T15:56:46;18.10;99.90
57058;DHT22;55017;52.848;6.748;2023-09-19T15:59:14;18.10;99.90
57058;DHT22;55017;52.848;6.748;2023-09-19T16:01:44;18.10;99.90
57058;DHT22;55017;52.848;6.748;2023-09-19T16:04:10;18.00;99.90
57058;DHT22;55017;52.848;6.748;2023-09-19T16:06:37;18.10;99.90
57058;DHT22;55017;52.848;6.748;2023-09-19T16:09:04;18.20;99.90
57058;DHT22;55017;52.848;6.748;2023-09-19T16:11:33;18.10;99.90
57058;DHT22;55017;52.848;6.748;2023-09-19T16:13:59;18.00;99.90
57058;DHT22;55017;52.848;6.748;2023-09-19T16:16:26;18.10;99.90
57058;DHT22;55017;52.848;6.748;2023-09-19T16:19:01;18.20;99.90
57058;DHT22;55017;52.848;6.748;2023-09-19T16:21:29;18.10;99.90